Hillsboro, MD (21641)

8:14 AM EST on February 08, 2016 (GMT -0500)
Norwich Creek | | Change Station
CLOSE
Current Station
Personal Weather Station
Location: Queen Anne, MD
Elevation: 60 ft
Nearby Weather Stations

Elev 60 ft 38.91 °N, 75.95 °W | Updated 9 minutes ago

Scattered Clouds
Scattered Clouds
35.3 °F
Feels Like 35 °F
N
3.0
Wind Variable Wind from North

Today
High -- | Low -- °F
--% Chance of Precip.
Yesterday
High -- | Low -- °F
Precip. -- in
Pressure 29.82 in
Visibility 10.0 miles
Clouds Scattered Clouds 12000 ft
Windchill 35 °F
Dew Point 27 °F
Humidity 73%
Rainfall 0.00 in
Snow Depth Not available.
7:03 AM 5:32 PM
Waning Crescent, 0% visible
METAR KESN 081250Z 36004KT 10SM SCT120 02/M03 A2982
Pressure 29.82 in
Visibility 10.0 miles
Clouds Scattered Clouds 12000 ft
Windchill 35 °F
Dew Point 27 °F
Humidity 73%
Rainfall 0.00 in
Snow Depth Not available.
7:03 AM 5:32 PM
Waning Crescent, 0% visible
METAR KESN 081250Z 36004KT 10SM SCT120 02/M03 A2982

10-Day Weather Forecast

Almanac

Astronomy

Feb. 08, 2016 Rise Set
Actual Time
Civil Twilight
Nautical Twilight
Astronomical Twilight
Moon
Length of Visible Light
Length of Day
Tomorrow will be .
, % of the Moon is Illuminated

Today's Extremes

State Highs State Lows

Community

WunderPhotos

Upload Photos

1,891,434 photos uploaded!

WunderBlog® & News

Nearby

Air Quality

  Air Quality AQ Index Pollutant
Not available.

Snow Depth

Station Depth Elevation

Earthquake Activity

City Distance Mag. Time & Date
Minimum magnitude displayed is 2.5.

Coastal Water Temperatures

Place Temperature

Stations

Nearby Weather Stations

Station Location Temp. Windchill Dew Point Humidity Wind Precip. Elev Updated Type
                   

Watches & Warnings

There are currently no watches in effect.